createdAt,value
2018-12-29T00:00:37.909Z,1.30
2018-12-29T00:03:06.378Z,1.30
2018-12-29T00:05:34.833Z,1.30
2018-12-29T00:08:03.233Z,1.30
2018-12-29T00:10:31.803Z,1.40
2018-12-29T00:13:00.293Z,1.40
2018-12-29T00:15:28.731Z,1.30
2018-12-29T00:17:57.141Z,1.40
2018-12-29T00:20:25.633Z,1.40
2018-12-29T00:22:54.095Z,1.40
2018-12-29T00:25:22.970Z,1.30
2018-12-29T00:27:51.427Z,1.30
2018-12-29T00:30:19.861Z,1.30
2018-12-29T00:32:48.269Z,1.30
2018-12-29T00:35:16.727Z,1.30
2018-12-29T00:37:45.141Z,1.30
2018-12-29T00:40:13.575Z,1.40
2018-12-29T00:42:42.018Z,1.40
2018-12-29T00:45:10.403Z,1.40
2018-12-29T00:47:38.826Z,1.50
2018-12-29T00:50:07.310Z,1.50
2018-12-29T00:52:35.721Z,1.50
2018-12-29T00:55:04.279Z,1.50
2018-12-29T00:57:32.759Z,1.50
2018-12-29T01:00:01.159Z,1.50
2018-12-29T01:02:29.568Z,1.50
2018-12-29T01:04:58.002Z,1.50
2018-12-29T01:07:26.393Z,1.60
2018-12-29T01:09:54.797Z,1.50
2018-12-29T01:12:23.242Z,1.50
2018-12-29T01:14:51.698Z,1.50
2018-12-29T01:17:20.209Z,1.50
2018-12-29T01:19:48.645Z,1.50
2018-12-29T01:22:17.074Z,1.40
2018-12-29T01:24:45.441Z,1.50
2018-12-29T01:27:13.942Z,1.50
2018-12-29T01:29:42.337Z,1.50
2018-12-29T01:32:10.788Z,1.50
2018-12-29T01:34:39.249Z,1.50
2018-12-29T01:37:07.638Z,1.40
2018-12-29T01:39:36.038Z,1.30
2018-12-29T01:42:04.606Z,1.30
2018-12-29T01:44:33.037Z,1.30
2018-12-29T01:47:01.468Z,1.20
2018-12-29T01:49:29.906Z,1.20
2018-12-29T01:51:58.333Z,1.10
2018-12-29T01:54:26.765Z,1.00
2018-12-29T01:56:55.209Z,0.90
2018-12-29T01:59:23.677Z,0.90
2018-12-29T02:01:52.106Z,0.90
2018-12-29T02:04:20.549Z,1.00
2018-12-29T02:06:48.961Z,0.90
2018-12-29T02:09:17.371Z,0.90
2018-12-29T02:11:45.831Z,0.90
2018-12-29T02:14:14.254Z,0.80
2018-12-29T02:16:42.686Z,0.80
2018-12-29T02:19:11.122Z,0.80
2018-12-29T02:21:39.588Z,0.80
2018-12-29T02:24:07.977Z,0.80
2018-12-29T02:26:36.435Z,0.80
2018-12-29T02:29:04.950Z,0.80
2018-12-29T02:31:33.365Z,0.80
2018-12-29T02:34:02.061Z,0.80
2018-12-29T02:36:30.541Z,0.80
2018-12-29T02:38:58.926Z,0.80
2018-12-29T02:41:27.418Z,0.80
2018-12-29T02:43:55.840Z,0.80
2018-12-29T02:46:24.324Z,0.80
2018-12-29T02:48:52.795Z,0.80
2018-12-29T02:51:21.256Z,0.80
2018-12-29T02:53:49.667Z,0.80
2018-12-29T02:56:18.090Z,0.80
2018-12-29T02:58:46.530Z,0.80
2018-12-29T03:01:14.930Z,0.80
2018-12-29T03:03:43.429Z,0.90
2018-12-29T03:06:11.872Z,0.90
2018-12-29T03:08:40.315Z,0.90
2018-12-29T03:11:08.741Z,0.80
2018-12-29T03:13:37.204Z,0.80
2018-12-29T03:16:05.684Z,0.80
2018-12-29T03:18:34.125Z,0.80
2018-12-29T03:21:02.521Z,0.80
2018-12-29T03:23:30.984Z,0.80
2018-12-29T03:25:59.634Z,0.80
2018-12-29T03:28:28.088Z,0.80
2018-12-29T03:30:56.495Z,0.80
2018-12-29T03:33:24.965Z,0.80
2018-12-29T03:35:53.388Z,0.80
2018-12-29T03:38:21.877Z,0.70
2018-12-29T03:40:50.382Z,0.70
2018-12-29T03:43:18.773Z,0.70
2018-12-29T03:45:49.318Z,0.70
2018-12-29T03:48:17.330Z,0.70
2018-12-29T03:50:45.741Z,0.70
2018-12-29T03:53:14.228Z,0.70
2018-12-29T03:55:42.717Z,0.70
2018-12-29T03:58:11.162Z,0.70
2018-12-29T04:00:39.576Z,0.70
2018-12-29T04:03:08.015Z,0.70
2018-12-29T04:05:36.452Z,0.70
2018-12-29T04:08:04.875Z,0.60
2018-12-29T04:10:33.324Z,0.60
2018-12-29T04:13:01.749Z,0.60
2018-12-29T04:15:30.215Z,0.60
2018-12-29T04:17:58.681Z,0.50
2018-12-29T04:20:27.108Z,0.40
2018-12-29T04:22:55.525Z,0.40
2018-12-29T04:25:24.355Z,0.30
2018-12-29T04:27:52.851Z,0.20
2018-12-29T04:30:21.313Z,0.20
2018-12-29T04:32:49.810Z,0.20
2018-12-29T04:35:18.317Z,0.20
2018-12-29T04:37:46.791Z,0.10
2018-12-29T04:40:15.246Z,0.00
2018-12-29T04:42:43.634Z,0.00
2018-12-29T04:45:12.042Z,-0.10
2018-12-29T04:47:40.477Z,-0.10
2018-12-29T04:50:08.883Z,-0.10
2018-12-29T04:52:37.268Z,0.00
2018-12-29T04:55:05.917Z,0.00
2018-12-29T04:57:34.398Z,-0.10
2018-12-29T05:00:02.862Z,-0.10
2018-12-29T05:02:31.297Z,-0.10
2018-12-29T05:04:59.689Z,-0.10
2018-12-29T05:07:28.133Z,-0.10
2018-12-29T05:09:56.582Z,-0.10
2018-12-29T05:12:25.007Z,-0.10
2018-12-29T05:14:53.459Z,-0.10
2018-12-29T05:17:21.916Z,0.00
2018-12-29T05:19:50.312Z,0.00
2018-12-29T05:22:18.703Z,0.00
2018-12-29T05:24:47.134Z,0.10
2018-12-29T05:27:15.558Z,0.00
2018-12-29T05:29:44.084Z,0.00
2018-12-29T05:32:12.593Z,0.00
2018-12-29T05:34:41.006Z,0.00
2018-12-29T05:37:09.429Z,0.00
2018-12-29T05:39:37.893Z,0.00
2018-12-29T05:42:06.327Z,0.00
2018-12-29T05:44:34.764Z,0.00
2018-12-29T05:47:03.322Z,0.00
2018-12-29T05:49:31.753Z,0.00
2018-12-29T05:52:00.220Z,-0.10
2018-12-29T05:54:28.717Z,-0.10
2018-12-29T05:56:57.274Z,-0.10
2018-12-29T05:59:25.742Z,-0.10
2018-12-29T06:01:54.220Z,-0.10
2018-12-29T06:04:22.733Z,-0.10
2018-12-29T06:06:51.183Z,0.00
2018-12-29T06:09:19.679Z,-0.10
2018-12-29T06:11:48.097Z,-0.10
2018-12-29T06:14:16.501Z,0.00
2018-12-29T06:16:45.035Z,0.00
2018-12-29T06:19:13.429Z,0.10
2018-12-29T06:21:41.837Z,0.10
2018-12-29T06:24:10.619Z,0.10
2018-12-29T06:26:39.071Z,0.10
2018-12-29T06:29:07.507Z,0.10
2018-12-29T06:31:35.958Z,0.10
2018-12-29T06:34:04.380Z,0.10
2018-12-29T06:36:32.812Z,0.00
2018-12-29T06:39:01.243Z,0.10
2018-12-29T06:41:29.661Z,0.10
2018-12-29T06:43:58.070Z,0.10
2018-12-29T06:46:26.521Z,0.10
2018-12-29T06:48:54.930Z,0.00
2018-12-29T06:51:23.350Z,0.00
2018-12-29T06:53:51.789Z,-0.10
2018-12-29T06:56:20.347Z,-0.10
2018-12-29T06:58:48.775Z,-0.10
2018-12-29T07:01:17.238Z,-0.10
2018-12-29T07:03:46.745Z,-0.20
2018-12-29T07:06:15.345Z,-0.20
2018-12-29T07:08:43.870Z,-0.20
2018-12-29T07:11:12.315Z,-0.20
2018-12-29T07:13:40.770Z,-0.20
2018-12-29T07:16:09.265Z,-0.20
2018-12-29T07:18:37.715Z,-0.10
2018-12-29T07:21:06.114Z,-0.10
2018-12-29T07:23:34.576Z,-0.10
2018-12-29T07:26:02.985Z,-0.10
2018-12-29T07:28:32.992Z,-0.10
2018-12-29T07:31:01.475Z,-0.10
2018-12-29T07:33:29.993Z,-0.10
2018-12-29T07:35:58.398Z,-0.10
2018-12-29T07:38:26.811Z,-0.10
2018-12-29T07:40:55.240Z,-0.10
2018-12-29T07:43:23.731Z,0.00
2018-12-29T07:45:52.173Z,-0.10
2018-12-29T07:48:20.635Z,0.00
2018-12-29T07:50:49.132Z,0.00
2018-12-29T07:53:17.573Z,0.10
2018-12-29T07:55:45.984Z,0.10
2018-12-29T07:58:14.437Z,0.10
2018-12-29T08:00:42.978Z,0.00
2018-12-29T08:03:11.392Z,0.00
2018-12-29T08:05:39.835Z,0.00
2018-12-29T08:08:08.511Z,0.00
2018-12-29T08:10:36.973Z,0.10
2018-12-29T08:13:05.393Z,0.00
2018-12-29T08:15:33.961Z,0.00
2018-12-29T08:18:02.342Z,0.10
2018-12-29T08:20:30.730Z,0.10
2018-12-29T08:22:59.161Z,0.20
2018-12-29T08:25:27.549Z,0.20
2018-12-29T08:27:55.985Z,0.20
2018-12-29T08:30:24.450Z,0.30
2018-12-29T08:32:52.917Z,0.30
2018-12-29T08:35:21.323Z,0.30
2018-12-29T08:37:49.819Z,0.20
2018-12-29T08:40:18.292Z,0.10
2018-12-29T08:42:46.681Z,0.20
2018-12-29T08:45:15.233Z,0.20
2018-12-29T08:47:43.712Z,0.30
2018-12-29T08:50:13.259Z,0.40
2018-12-29T08:52:41.924Z,0.50
2018-12-29T08:55:10.322Z,0.40
2018-12-29T08:57:38.709Z,0.30
2018-12-29T09:00:08.198Z,0.30
2018-12-29T09:02:36.611Z,0.40
2018-12-29T09:05:05.219Z,0.40
2018-12-29T09:07:33.665Z,0.30
2018-12-29T09:10:02.102Z,0.40
2018-12-29T09:12:30.577Z,0.50
2018-12-29T09:14:59.067Z,0.40
2018-12-29T09:17:27.558Z,0.40
2018-12-29T09:19:56.048Z,0.50
2018-12-29T09:22:24.534Z,0.60
2018-12-29T09:24:52.945Z,0.70
2018-12-29T09:27:21.384Z,0.80
2018-12-29T09:29:49.860Z,0.80
2018-12-29T09:32:18.273Z,0.80
2018-12-29T09:34:46.714Z,0.90
2018-12-29T09:37:15.130Z,0.90
2018-12-29T09:39:43.522Z,1.00
2018-12-29T09:42:12.016Z,1.00
2018-12-29T09:44:40.460Z,0.90
2018-12-29T09:47:08.853Z,0.80
2018-12-29T09:49:37.331Z,0.80
2018-12-29T09:52:05.759Z,0.80
2018-12-29T09:54:34.188Z,0.80
2018-12-29T09:57:02.602Z,0.90
2018-12-29T09:59:31.090Z,0.80
2018-12-29T10:02:00.306Z,0.80
2018-12-29T10:04:28.735Z,0.80
2018-12-29T10:06:57.272Z,0.80
2018-12-29T10:09:25.689Z,0.80
2018-12-29T10:11:54.159Z,0.80
2018-12-29T10:14:22.613Z,1.00
2018-12-29T10:16:51.007Z,0.90
2018-12-29T10:19:19.455Z,1.00
2018-12-29T10:21:47.916Z,1.00
2018-12-29T10:24:16.398Z,1.10
2018-12-29T10:26:44.887Z,1.10
2018-12-29T10:29:13.317Z,1.20
2018-12-29T10:31:42.099Z,1.30
2018-12-29T10:34:10.503Z,1.30
2018-12-29T10:36:39.043Z,1.30
2018-12-29T10:39:07.441Z,1.30
2018-12-29T10:41:36.337Z,1.40
2018-12-29T10:44:04.813Z,1.50
2018-12-29T10:46:33.653Z,1.50
2018-12-29T10:49:02.161Z,1.40
2018-12-29T10:51:30.639Z,1.40
2018-12-29T10:53:59.082Z,1.20
2018-12-29T10:56:27.491Z,1.10
2018-12-29T10:58:55.970Z,1.20
2018-12-29T11:01:24.362Z,1.30
2018-12-29T11:03:52.785Z,1.40
2018-12-29T11:06:21.350Z,1.40
2018-12-29T11:08:49.774Z,1.30
2018-12-29T11:11:18.189Z,1.30
2018-12-29T11:13:46.699Z,1.30
2018-12-29T11:16:16.251Z,1.30
2018-12-29T11:18:44.661Z,1.20
2018-12-29T11:21:13.200Z,1.30
2018-12-29T11:23:41.651Z,1.40
2018-12-29T11:26:10.038Z,1.40
2018-12-29T11:28:38.512Z,1.30
2018-12-29T11:31:07.013Z,1.50
2018-12-29T11:33:35.445Z,1.60
2018-12-29T11:36:03.949Z,1.80
2018-12-29T11:38:32.397Z,1.80
2018-12-29T11:41:00.822Z,1.70
2018-12-29T11:43:29.239Z,1.70
2018-12-29T11:45:57.675Z,1.70
2018-12-29T11:48:26.127Z,1.70
2018-12-29T11:50:54.625Z,1.60
2018-12-29T11:53:23.131Z,1.50
2018-12-29T11:55:51.526Z,1.60
2018-12-29T11:58:19.994Z,1.70
2018-12-29T12:00:48.410Z,1.60
2018-12-29T12:03:16.839Z,1.60
2018-12-29T12:05:45.343Z,1.60
2018-12-29T12:08:13.756Z,1.60
2018-12-29T12:10:42.180Z,1.50
2018-12-29T12:13:10.686Z,1.60
2018-12-29T12:15:39.146Z,1.60
2018-12-29T12:18:07.589Z,1.70
2018-12-29T12:20:36.058Z,1.90
2018-12-29T12:23:04.580Z,2.10
2018-12-29T12:25:33.010Z,2.20
2018-12-29T12:28:01.771Z,2.20
2018-12-29T12:30:30.252Z,2.10
2018-12-29T12:32:58.731Z,2.10
2018-12-29T12:35:27.398Z,2.00
2018-12-29T12:37:56.136Z,2.10
2018-12-29T12:40:24.677Z,2.00
2018-12-29T12:42:53.476Z,1.90
2018-12-29T12:45:22.114Z,1.80
2018-12-29T12:47:50.581Z,2.00
2018-12-29T12:50:19.114Z,2.00
2018-12-29T12:52:47.741Z,2.00
2018-12-29T12:55:16.161Z,2.30
2018-12-29T12:57:44.633Z,2.30
2018-12-29T13:00:13.504Z,2.30
2018-12-29T13:02:41.897Z,2.20
2018-12-29T13:05:10.417Z,2.30
2018-12-29T13:07:38.951Z,2.20
2018-12-29T13:10:10.921Z,2.30
2018-12-29T13:12:39.404Z,2.30
2018-12-29T13:15:07.899Z,2.30
2018-12-29T13:17:39.363Z,2.10
2018-12-29T13:20:07.975Z,2.00
2018-12-29T13:22:36.418Z,1.90
2018-12-29T13:25:04.934Z,2.00
2018-12-29T13:27:33.381Z,2.10
2018-12-29T13:30:01.828Z,2.10
2018-12-29T13:32:30.323Z,2.10
2018-12-29T13:34:58.849Z,2.20
2018-12-29T13:37:27.309Z,2.20
2018-12-29T13:39:56.666Z,2.30
2018-12-29T13:42:25.392Z,2.10
2018-12-29T13:44:53.835Z,2.20
2018-12-29T13:47:22.302Z,2.20
2018-12-29T13:49:50.865Z,2.10
2018-12-29T13:52:19.297Z,2.10
2018-12-29T13:54:47.733Z,1.90
2018-12-29T13:57:16.228Z,1.90
2018-12-29T13:59:44.886Z,1.80
2018-12-29T14:02:13.434Z,1.70
2018-12-29T14:04:42.092Z,1.60
2018-12-29T14:07:10.552Z,1.50
2018-12-29T14:09:39.036Z,1.40
2018-12-29T14:12:07.514Z,1.30
2018-12-29T14:14:36.006Z,1.30
2018-12-29T14:17:04.421Z,1.30
2018-12-29T14:19:32.892Z,1.30
2018-12-29T14:22:01.309Z,1.40
2018-12-29T14:24:30.098Z,1.30
2018-12-29T14:26:58.605Z,1.30
2018-12-29T14:29:27.122Z,1.20
2018-12-29T14:31:55.556Z,1.20
2018-12-29T14:34:24.088Z,1.10
2018-12-29T14:36:52.818Z,1.20
2018-12-29T14:39:21.215Z,1.20
2018-12-29T14:41:50.633Z,1.20
2018-12-29T14:44:19.094Z,1.20
2018-12-29T14:46:47.513Z,1.10
2018-12-29T14:49:16.825Z,1.10
2018-12-29T14:51:45.317Z,1.10
2018-12-29T14:54:13.783Z,1.10
2018-12-29T14:56:42.268Z,1.10
2018-12-29T14:59:10.670Z,1.00
2018-12-29T15:01:39.353Z,1.00
2018-12-29T15:04:07.805Z,0.90
2018-12-29T15:06:36.232Z,0.90
2018-12-29T15:09:06.093Z,0.90
2018-12-29T15:11:34.549Z,0.90
2018-12-29T15:14:02.977Z,0.90
2018-12-29T15:16:31.817Z,0.90
2018-12-29T15:19:00.379Z,1.00
2018-12-29T15:21:29.164Z,0.90
2018-12-29T15:23:57.667Z,0.90
2018-12-29T15:26:26.200Z,1.00
2018-12-29T15:28:54.650Z,1.00
2018-12-29T15:31:23.169Z,1.00
2018-12-29T15:33:51.698Z,1.00
2018-12-29T15:36:20.119Z,1.00
2018-12-29T15:38:48.641Z,1.00
2018-12-29T15:41:17.157Z,1.00
2018-12-29T15:43:45.615Z,1.00
2018-12-29T15:46:14.102Z,1.00
2018-12-29T15:48:42.561Z,1.00
2018-12-29T15:51:11.062Z,1.00
2018-12-29T15:53:39.558Z,1.00
2018-12-29T15:56:08.091Z,1.00
2018-12-29T15:58:36.483Z,1.00
2018-12-29T16:01:04.931Z,1.00
2018-12-29T16:03:33.381Z,1.00
2018-12-29T16:06:01.974Z,1.00
2018-12-29T16:08:30.446Z,1.10
2018-12-29T16:10:59.199Z,1.10
2018-12-29T16:13:27.663Z,1.10
2018-12-29T16:15:56.122Z,1.10
2018-12-29T16:18:25.024Z,1.10
2018-12-29T16:20:55.335Z,1.00
2018-12-29T16:23:23.616Z,1.10
2018-12-29T16:25:52.438Z,1.10
2018-12-29T16:28:20.942Z,1.10
2018-12-29T16:30:49.412Z,1.10
2018-12-29T16:33:17.954Z,1.10
2018-12-29T16:35:46.425Z,1.00
2018-12-29T16:38:15.221Z,1.00
2018-12-29T16:40:43.665Z,1.10
2018-12-29T16:43:12.216Z,1.10
2018-12-29T16:45:40.729Z,1.10
2018-12-29T16:48:09.450Z,1.10
2018-12-29T16:50:38.053Z,1.10
2018-12-29T16:53:07.555Z,1.10
2018-12-29T16:55:36.151Z,1.10
2018-12-29T16:58:04.986Z,1.00
2018-12-29T17:00:33.478Z,1.00
2018-12-29T17:03:01.985Z,1.00
2018-12-29T17:05:30.540Z,1.00
2018-12-29T17:07:59.270Z,1.10
2018-12-29T17:10:27.747Z,1.10
2018-12-29T17:12:56.274Z,1.10
2018-12-29T17:15:24.729Z,1.10
2018-12-29T17:17:53.202Z,1.10
2018-12-29T17:20:21.614Z,1.20
2018-12-29T17:22:50.070Z,1.30
2018-12-29T17:25:18.513Z,1.30
2018-12-29T17:27:46.942Z,1.30
2018-12-29T17:30:15.461Z,1.20
2018-12-29T17:32:44.227Z,1.30
2018-12-29T17:35:12.815Z,1.30
2018-12-29T17:37:41.239Z,1.40
2018-12-29T17:40:09.947Z,1.40
2018-12-29T17:42:38.401Z,1.40
2018-12-29T17:45:07.261Z,1.40
2018-12-29T17:47:35.730Z,1.40
2018-12-29T17:50:04.849Z,1.40
2018-12-29T17:52:33.263Z,1.40
2018-12-29T17:55:02.117Z,1.40
2018-12-29T17:57:30.541Z,1.40
2018-12-29T17:59:58.953Z,1.40
2018-12-29T18:02:27.466Z,1.40
2018-12-29T18:04:55.937Z,1.40
2018-12-29T18:07:24.770Z,1.40
2018-12-29T18:09:57.211Z,1.40
2018-12-29T18:12:23.442Z,1.50
2018-12-29T18:14:52.183Z,1.50
2018-12-29T18:17:20.723Z,1.50
2018-12-29T18:19:49.227Z,1.50
2018-12-29T18:22:17.789Z,1.50
2018-12-29T18:24:46.522Z,1.60
2018-12-29T18:27:14.949Z,1.60
2018-12-29T18:29:43.455Z,1.60
2018-12-29T18:32:12.055Z,1.70
2018-12-29T18:34:40.750Z,1.70
2018-12-29T18:37:09.284Z,1.70
2018-12-29T18:39:37.801Z,1.70
2018-12-29T18:42:06.299Z,1.80
2018-12-29T18:44:34.723Z,1.70
2018-12-29T18:47:03.230Z,1.80
2018-12-29T18:49:38.509Z,1.70
2018-12-29T18:52:02.111Z,1.70
2018-12-29T18:54:30.639Z,1.70
2018-12-29T18:56:59.174Z,1.80
2018-12-29T18:59:27.706Z,1.70
2018-12-29T19:01:57.777Z,1.80
2018-12-29T19:04:26.461Z,1.80
2018-12-29T19:06:54.963Z,1.90
2018-12-29T19:09:23.375Z,1.90
2018-12-29T19:11:51.775Z,2.00
2018-12-29T19:14:20.213Z,2.00
2018-12-29T19:16:48.683Z,1.90
2018-12-29T19:19:17.080Z,1.80
2018-12-29T19:21:45.627Z,1.80
2018-12-29T19:24:14.125Z,1.80
2018-12-29T19:26:42.966Z,1.80
2018-12-29T19:29:11.417Z,1.80
2018-12-29T19:31:44.591Z,1.80
2018-12-29T19:34:10.110Z,1.90
2018-12-29T19:36:38.610Z,1.90
2018-12-29T19:39:07.349Z,1.80
2018-12-29T19:41:35.796Z,1.70
2018-12-29T19:44:04.317Z,1.60
2018-12-29T19:46:33.046Z,1.50
2018-12-29T19:49:01.544Z,1.30
2018-12-29T19:51:30.383Z,1.20
2018-12-29T19:53:58.877Z,1.20
2018-12-29T19:56:27.352Z,1.20
2018-12-29T19:58:56.899Z,1.20
2018-12-29T20:01:25.427Z,1.20
2018-12-29T20:03:54.207Z,1.20
2018-12-29T20:06:22.633Z,1.20
2018-12-29T20:08:51.173Z,1.20
2018-12-29T20:11:19.596Z,1.30
2018-12-29T20:13:47.997Z,1.30
2018-12-29T20:16:16.488Z,1.30
2018-12-29T20:18:45.085Z,1.30
2018-12-29T20:21:13.534Z,1.30
2018-12-29T20:23:42.036Z,1.30
2018-12-29T20:26:10.464Z,1.30
2018-12-29T20:28:38.851Z,1.20
2018-12-29T20:31:07.623Z,1.30
2018-12-29T20:33:36.077Z,1.30
2018-12-29T20:36:04.553Z,1.30
2018-12-29T20:38:32.985Z,1.30
2018-12-29T20:41:01.419Z,1.20
2018-12-29T20:43:29.806Z,1.20
2018-12-29T20:45:58.293Z,1.20
2018-12-29T20:48:26.686Z,1.20
2018-12-29T20:50:55.175Z,1.20
2018-12-29T20:53:23.700Z,1.20
2018-12-29T20:55:52.129Z,1.20
2018-12-29T20:58:20.817Z,1.20
2018-12-29T21:00:49.329Z,1.20
2018-12-29T21:03:17.797Z,1.20
2018-12-29T21:05:46.304Z,1.20
2018-12-29T21:08:14.929Z,1.20
2018-12-29T21:10:43.405Z,1.20
2018-12-29T21:13:11.817Z,1.20
2018-12-29T21:15:40.261Z,1.20
2018-12-29T21:18:08.683Z,1.20
2018-12-29T21:20:37.103Z,1.10
2018-12-29T21:23:05.611Z,1.20
2018-12-29T21:25:34.129Z,1.10
2018-12-29T21:28:02.649Z,1.10
2018-12-29T21:30:31.369Z,1.20
2018-12-29T21:32:59.787Z,1.20
2018-12-29T21:35:28.319Z,1.20
2018-12-29T21:37:56.891Z,1.20
2018-12-29T21:40:25.721Z,1.20
2018-12-29T21:42:54.415Z,1.30
2018-12-29T21:45:23.029Z,1.30
2018-12-29T21:47:51.561Z,1.20
2018-12-29T21:50:25.325Z,1.20
2018-12-29T21:52:50.311Z,1.20
2018-12-29T21:55:18.846Z,1.20
2018-12-29T21:57:47.381Z,1.10
2018-12-29T22:00:15.914Z,1.10
2018-12-29T22:02:44.450Z,1.20
2018-12-29T22:05:12.933Z,1.20
2018-12-29T22:07:41.626Z,1.20
2018-12-29T22:10:10.049Z,1.10
2018-12-29T22:12:38.473Z,1.20
2018-12-29T22:15:07.838Z,1.20
2018-12-29T22:17:36.397Z,1.30
2018-12-29T22:20:06.521Z,1.20
2018-12-29T22:22:35.136Z,1.20
2018-12-29T22:25:03.808Z,1.20
2018-12-29T22:27:32.271Z,1.20
2018-12-29T22:30:00.810Z,1.20
2018-12-29T22:32:29.220Z,1.30
2018-12-29T22:34:57.918Z,1.30
2018-12-29T22:37:26.548Z,1.30
2018-12-29T22:39:54.969Z,1.20
2018-12-29T22:42:23.508Z,1.30
2018-12-29T22:44:51.994Z,1.30
2018-12-29T22:47:20.484Z,1.30
2018-12-29T22:49:48.889Z,1.30
2018-12-29T22:52:17.458Z,1.30
2018-12-29T22:54:45.933Z,1.30
2018-12-29T22:57:14.359Z,1.40
2018-12-29T22:59:42.882Z,1.40
2018-12-29T23:02:11.605Z,1.40
2018-12-29T23:04:40.252Z,1.40
2018-12-29T23:07:09.058Z,1.40
2018-12-29T23:09:37.654Z,1.40
2018-12-29T23:12:06.514Z,1.40
2018-12-29T23:14:35.146Z,1.40
2018-12-29T23:17:03.834Z,1.40
2018-12-29T23:19:32.230Z,1.40
2018-12-29T23:22:00.812Z,1.40
2018-12-29T23:24:29.296Z,1.40
2018-12-29T23:26:57.822Z,1.50
2018-12-29T23:29:26.483Z,1.40
2018-12-29T23:31:54.968Z,1.40
2018-12-29T23:34:23.586Z,1.50
2018-12-29T23:36:52.106Z,1.40
2018-12-29T23:39:20.687Z,1.50
2018-12-29T23:41:49.474Z,1.40
2018-12-29T23:44:18.015Z,1.40
2018-12-29T23:46:46.498Z,1.50
2018-12-29T23:49:14.961Z,1.40
2018-12-29T23:51:43.822Z,1.50
2018-12-29T23:54:12.226Z,1.50
2018-12-29T23:56:40.944Z,1.50
2018-12-29T23:59:09.466Z,1.40
